Time;durP1;ratioP1;P1;durP2;ratioP2;P2;SDS_P1;SDS_P2;PMS_P1;PMS_P2;Temp;Humidity;BMP_temperature;BMP_pressure;BME280_temperature;BME280_humidity;BME280_pressure;Samples;Min_cycle;Max_cycle;Signal;HPM_P1;HPM_P2
2021/01/23 00:03:25;;;;;;;8.93;4.80;;;;;;;2.57;100.00;98596.69;20902131;28;20140;-72
2021/01/23 00:13:26;;;;;;;7.80;4.25;;;;;;;2.55;100.00;98617.41;20910359;28;20045;-71
2021/01/23 00:23:27;;;;;;;8.30;3.88;;;;;;;2.64;100.00;98612.69;20906778;28;20048;-71
2021/01/23 00:33:28;;;;;;;7.15;4.20;;;;;;;2.64;100.00;98638.53;20899360;28;20045;-71
2021/01/23 00:43:29;;;;;;;8.75;4.78;;;;;;;2.71;100.00;98648.47;20898693;28;20630;-71
2021/01/23 00:53:30;;;;;;;7.68;4.30;;;;;;;2.76;100.00;98635.31;20898358;28;20482;-72
2021/01/23 01:03:32;;;;;;;7.55;4.10;;;;;;;2.74;100.00;98650.06;20904043;28;20131;-72
2021/01/23 01:13:33;;;;;;;8.20;4.10;;;;;;;2.74;100.00;98662.97;20906361;28;20408;-72
2021/01/23 01:23:34;;;;;;;8.80;4.07;;;;;;;2.72;100.00;98662.22;20896677;28;20187;-72
2021/01/23 01:33:35;;;;;;;10.10;4.70;;;;;;;2.62;100.00;98653.25;20903470;28;20538;-72
2021/01/23 01:43:38;;;;;;;10.55;5.60;;;;;;;2.64;100.00;98672.94;20886377;28;20480;-72
2021/01/23 01:53:42;;;;;;;16.67;7.53;;;;;;;2.72;100.00;98680.28;20885600;28;20045;-73
2021/01/23 02:04:03;;;;;;;16.45;8.55;;;;;;;2.65;100.00;98681.50;20900791;28;20110;-72
2021/01/23 02:14:18;;;;;;;13.98;7.63;;;;;;;2.68;100.00;98699.44;20884511;28;20049;-70
2021/01/23 02:24:23;;;;;;;;;;;;;;;2.59;100.00;98718.81;20887550;28;20084;-71
2021/01/23 02:34:27;;;;;;;13.27;5.70;;;;;;;2.61;100.00;98737.63;20887340;28;19951;-71
2021/01/23 02:44:28;;;;;;;11.13;6.35;;;;;;;2.66;100.00;98734.84;20831333;28;20072;-71
2021/01/23 02:54:41;;;;;;;13.20;6.40;;;;;;;2.59;100.00;98737.72;20826798;28;20124;-71
2021/01/23 03:04:43;;;;;;;12.05;6.60;;;;;;;2.59;100.00;98760.13;20817606;28;20042;-71
2021/01/23 03:14:44;;;;;;;14.38;6.43;;;;;;;2.57;100.00;98762.78;20838842;28;20049;-72
2021/01/23 03:24:45;;;;;;;17.52;8.80;;;;;;;2.50;100.00;98753.66;20905592;28;20045;-71
2021/01/23 03:34:46;;;;;;;19.50;10.82;;;;;;;2.41;100.00;98755.84;20912860;28;20045;-71
2021/01/23 03:44:47;;;;;;;24.00;12.10;;;;;;;2.36;100.00;98756.06;20894885;28;20048;-72
2021/01/23 03:54:48;;;;;;;28.17;13.20;;;;;;;2.36;100.00;98757.81;20903756;28;20049;-72
2021/01/23 04:04:49;;;;;;;30.45;14.35;;;;;;;2.26;100.00;98759.13;20909448;28;20051;-71
2021/01/23 04:14:50;;;;;;;33.15;16.42;;;;;;;2.21;100.00;98766.25;20901686;28;20044;-71
2021/01/23 04:24:51;;;;;;;34.05;16.65;;;;;;;2.21;100.00;98772.25;20837223;28;20056;-72
2021/01/23 04:34:52;;;;;;;38.22;16.58;;;;;;;2.21;100.00;98787.75;20840989;28;20045;-71
2021/01/23 04:44:52;;;;;;;30.67;14.93;;;;;;;2.14;100.00;98789.78;20890622;28;20055;-72
2021/01/23 04:54:54;;;;;;;32.80;14.95;;;;;;;2.21;100.00;98792.06;20898491;28;20048;-72
2021/01/23 05:05:01;;;;;;;28.83;14.30;;;;;;;2.27;100.00;98792.63;20904800;28;20382;-71
2021/01/23 05:15:05;;;;;;;26.25;13.13;;;;;;;2.29;100.00;98802.88;20896693;28;20068;-72
2021/01/23 05:25:10;;;;;;;25.80;13.70;;;;;;;2.25;100.00;98798.75;20897878;28;20048;-71
2021/01/23 05:35:13;;;;;;;24.27;12.85;;;;;;;2.26;100.00;98792.69;20900672;28;20045;-72
2021/01/23 05:45:15;;;;;;;22.60;11.98;;;;;;;2.15;100.00;98781.13;20889252;28;20081;-72
2021/01/23 05:55:15;;;;;;;20.80;11.00;;;;;;;2.27;100.00;98787.47;20894146;28;20091;-72
2021/01/23 06:05:17;;;;;;;18.30;9.13;;;;;;;2.28;100.00;98778.81;20901894;28;20045;-72
2021/01/23 06:15:40;;;;;;;13.90;7.38;;;;;;;2.30;100.00;98782.16;20879799;28;20096;-72
2021/01/23 06:25:50;;;;;;;12.95;6.85;;;;;;;2.36;100.00;98781.88;20822606;28;20045;-72
2021/01/23 06:36:05;;;;;;;9.30;4.85;;;;;;;2.21;100.00;98780.00;20818514;28;20493;-71
2021/01/23 06:46:13;;;;;;;9.65;4.88;;;;;;;2.35;100.00;98780.19;20850467;28;20041;-72
2021/01/23 06:56:14;;;;;;;8.98;4.15;;;;;;;2.23;100.00;98796.28;20892346;28;20103;-71
2021/01/23 07:06:27;;;;;;;8.65;4.35;;;;;;;2.26;100.00;98796.13;20879822;28;20045;-72
2021/01/23 07:16:29;;;;;;;10.57;5.20;;;;;;;2.20;100.00;98791.22;20863038;28;20508;-72
2021/01/23 07:26:31;;;;;;;11.63;4.80;;;;;;;2.16;100.00;98779.38;20861425;28;20050;-72
2021/01/23 07:36:36;;;;;;;10.68;5.13;;;;;;;2.17;100.00;98786.22;20831650;28;20046;-71
2021/01/23 07:46:40;;;;;;;13.27;7.35;;;;;;;2.26;100.00;98770.31;20831008;28;20053;-71
2021/01/23 07:56:56;;;;;;;11.27;5.20;;;;;;;2.45;100.00;98755.63;20883724;28;20131;-72
2021/01/23 08:07:31;;;;;;;11.95;5.45;;;;;;;2.51;100.00;98750.16;20910622;28;20045;-71
2021/01/23 08:17:42;;;;;;;13.57;6.20;;;;;;;2.67;100.00;98745.09;20893066;28;20485;-71
2021/01/23 08:27:47;;;;;;;16.23;7.85;;;;;;;2.71;100.00;98731.13;20896579;28;20420;-71
2021/01/23 08:37:49;;;;;;;;;;;;;;;2.95;100.00;98716.13;20878551;28;20683;-72
2021/01/23 08:47:51;;;;;;;11.40;6.13;;;;;;;3.05;100.00;98704.41;20839502;28;20273;-71
2021/01/23 08:57:52;;;;;;;12.10;5.28;;;;;;;3.22;100.00;98706.16;20854358;28;20041;-72
2021/01/23 09:07:53;;;;;;;8.77;5.07;;;;;;;3.43;100.00;98698.13;20906955;28;20057;-70
2021/01/23 09:17:54;;;;;;;13.75;6.07;;;;;;;3.57;100.00;98688.78;20827776;28;20061;-70
2021/01/23 09:27:55;;;;;;;10.02;5.03;;;;;;;3.65;100.00;98690.06;20839886;28;20053;-71
2021/01/23 09:37:56;;;;;;;11.43;5.65;;;;;;;3.89;100.00;98685.31;20823706;28;20103;-71
2021/01/23 09:47:57;;;;;;;12.10;5.97;;;;;;;3.89;100.00;98674.94;20822481;28;20045;-70
2021/01/23 09:58:14;;;;;;;13.38;6.68;;;;;;;4.13;100.00;98670.16;20846266;28;20071;-71
2021/01/23 10:08:15;;;;;;;12.32;6.75;;;;;;;4.39;100.00;98666.13;20820968;28;20057;-71
2021/01/23 10:18:16;;;;;;;9.95;5.22;;;;;;;4.42;98.95;98638.28;20878250;28;20582;-72
2021/01/23 10:28:17;;;;;;;8.27;4.22;;;;;;;4.58;96.98;98631.28;20845618;28;20120;-71
2021/01/23 10:38:18;;;;;;;9.55;5.30;;;;;;;5.05;95.57;98623.31;20868747;28;20045;-72
2021/01/23 10:48:19;;;;;;;8.00;4.05;;;;;;;5.21;92.97;98609.41;20842535;28;20099;-72
2021/01/23 10:58:20;;;;;;;10.20;4.97;;;;;;;5.06;94.30;98596.44;20830553;28;20084;-71
2021/01/23 11:08:21;;;;;;;9.77;4.43;;;;;;;5.47;92.25;98591.31;20830593;28;20045;-73
2021/01/23 11:18:22;;;;;;;8.07;3.70;;;;;;;5.34;89.37;98577.41;20833544;28;556110;-72
2021/01/23 11:28:23;;;;;;;7.75;3.50;;;;;;;5.72;87.58;98563.81;20851372;28;20060;-73
2021/01/23 11:38:24;;;;;;;5.70;2.90;;;;;;;5.54;87.39;98547.63;20856572;28;20130;-72
2021/01/23 11:48:25;;;;;;;11.93;3.60;;;;;;;5.75;85.98;98537.63;20859565;28;20080;-72
2021/01/23 11:58:26;;;;;;;8.38;3.63;;;;;;;5.74;84.35;98520.44;20847637;28;20584;-72
2021/01/23 12:08:27;;;;;;;5.72;3.13;;;;;;;5.91;85.25;98505.44;20846063;28;20496;-72
2021/01/23 12:18:28;;;;;;;6.65;2.60;;;;;;;6.05;85.06;98475.94;20845279;28;20048;-73
2021/01/23 12:28:29;;;;;;;8.73;2.53;;;;;;;5.83;84.90;98458.34;20828995;28;20080;-72
2021/01/23 12:38:30;;;;;;;5.47;2.40;;;;;;;6.04;85.69;98434.53;20829690;28;20037;-72
2021/01/23 12:48:31;;;;;;;6.50;2.60;;;;;;;6.00;85.79;98416.53;20822402;28;20068;-72
2021/01/23 12:58:32;;;;;;;4.85;2.10;;;;;;;6.15;86.06;98393.88;20831333;28;20654;-72
2021/01/23 13:08:33;;;;;;;6.40;2.33;;;;;;;6.39;81.64;98383.59;20858086;28;20041;-72
2021/01/23 13:18:33;;;;;;;11.50;4.72;;;;;;;6.56;80.84;98365.03;20863023;28;20080;-72
2021/01/23 13:28:34;;;;;;;4.45;1.90;;;;;;;6.50;79.14;98357.69;20861251;28;20064;-72
2021/01/23 13:38:36;;;;;;;7.32;2.92;;;;;;;6.21;82.28;98327.69;20852177;28;20091;-71
2021/01/23 13:48:38;;;;;;;7.43;4.53;;;;;;;6.19;83.59;98314.00;20831414;28;20041;-72
2021/01/23 13:58:39;;;;;;;13.63;4.57;;;;;;;6.27;82.77;98319.50;20818278;28;20045;-72
2021/01/23 14:08:40;;;;;;;6.70;3.25;;;;;;;6.19;84.77;98294.06;20824974;28;20056;-73
2021/01/23 14:18:41;;;;;;;5.03;2.10;;;;;;;6.07;82.27;98268.09;20830160;28;20120;-73
2021/01/23 14:28:42;;;;;;;9.57;3.08;;;;;;;6.02;83.71;98276.22;20856279;28;20049;-72
2021/01/23 14:38:43;;;;;;;6.35;3.53;;;;;;;5.88;83.88;98272.00;20863593;28;20056;-71
2021/01/23 14:48:51;;;;;;;7.95;3.78;;;;;;;5.83;84.73;98265.44;20832438;28;20045;-72
2021/01/23 14:58:52;;;;;;;12.75;5.60;;;;;;;5.74;85.06;98271.25;20844714;28;20041;-73
2021/01/23 15:08:52;;;;;;;9.55;3.97;;;;;;;5.61;81.71;98260.88;20828949;28;20378;-73
2021/01/23 15:18:53;;;;;;;9.98;3.10;;;;;;;5.51;83.94;98255.47;20846763;28;20083;-72
2021/01/23 15:28:54;;;;;;;8.20;4.43;;;;;;;5.43;84.48;98243.97;20892098;28;20053;-72
2021/01/23 15:38:56;;;;;;;9.35;2.50;;;;;;;5.25;86.64;98234.81;20872436;28;20521;-72
2021/01/23 15:48:57;;;;;;;6.47;3.00;;;;;;;5.16;89.26;98223.31;20845685;28;20099;-72
2021/01/23 15:58:58;;;;;;;6.18;3.40;;;;;;;5.21;88.78;98210.88;20828757;28;20037;-72
2021/01/23 16:08:59;;;;;;;10.02;4.70;;;;;;;5.07;91.34;98203.19;20847816;28;20041;-72
2021/01/23 16:19:08;;;;;;;8.52;4.28;;;;;;;4.96;91.03;98193.53;20825432;28;20041;-73
2021/01/23 16:29:10;;;;;;;12.30;6.35;;;;;;;4.88;91.33;98189.78;20827143;28;20167;-73
2021/01/23 16:39:11;;;;;;;16.35;9.48;;;;;;;4.94;92.07;98184.19;20827818;28;20045;-73
2021/01/23 16:49:12;;;;;;;9.02;4.75;;;;;;;4.91;92.42;98176.63;20822654;28;20148;-73
2021/01/23 16:59:13;;;;;;;13.02;7.45;;;;;;;4.78;93.72;98166.22;20823483;28;20049;-72
2021/01/23 17:09:14;;;;;;;13.25;7.72;;;;;;;4.71;93.99;98159.81;20825461;28;20042;-73
2021/01/23 17:19:16;;;;;;;7.40;2.60;;;;;;;4.68;92.36;98162.59;20825937;28;20045;-74
2021/01/23 17:29:16;;;;;;;7.60;4.07;;;;;;;4.64;92.77;98153.38;20821104;28;20048;-73
2021/01/23 17:39:17;;;;;;;7.47;4.00;;;;;;;4.53;94.08;98137.69;20819995;28;20041;-72
2021/01/23 17:49:19;;;;;;;7.60;3.53;;;;;;;4.42;95.36;98127.25;20863611;28;20519;-72
2021/01/23 17:59:20;;;;;;;10.38;4.97;;;;;;;4.35;96.02;98118.19;20852490;28;20128;-73
2021/01/23 18:09:20;;;;;;;7.03;3.72;;;;;;;4.22;96.35;98090.50;20858351;28;20124;-73
2021/01/23 18:19:22;;;;;;;18.13;9.68;;;;;;;3.94;97.83;98101.00;20856843;28;20049;-72
2021/01/23 18:29:22;;;;;;;11.38;6.32;;;;;;;3.92;98.40;98097.66;20852387;28;20049;-72
2021/01/23 18:39:23;;;;;;;21.35;9.52;;;;;;;3.96;98.71;98098.31;20852478;28;20091;-71
2021/01/23 18:49:24;;;;;;;10.57;5.93;;;;;;;3.90;98.30;98078.00;20868917;28;20134;-72
2021/01/23 18:59:25;;;;;;;9.50;5.35;;;;;;;3.85;96.39;98073.13;20870770;28;20057;-71
2021/01/23 19:09:27;;;;;;;15.02;7.05;;;;;;;3.74;99.10;98073.81;20866487;28;20037;-72
2021/01/23 19:19:28;;;;;;;14.18;7.32;;;;;;;3.78;99.35;98079.63;20867870;28;20047;-72
2021/01/23 19:29:29;;;;;;;12.98;7.80;;;;;;;3.75;99.62;98070.31;20853098;28;20053;-72
2021/01/23 19:39:30;;;;;;;17.92;10.25;;;;;;;3.79;100.00;98058.84;20852656;28;20090;-72
2021/01/23 19:49:31;;;;;;;13.40;8.18;;;;;;;3.76;100.00;98058.19;20870593;28;20041;-73
2021/01/23 19:59:32;;;;;;;15.63;9.00;;;;;;;3.75;100.00;98044.44;20858710;28;20053;-72
2021/01/23 20:09:33;;;;;;;11.98;6.57;;;;;;;3.74;100.00;98036.78;20847587;28;20378;-72
2021/01/23 20:19:34;;;;;;;12.93;8.52;;;;;;;3.75;100.00;98039.28;20880393;28;20072;-72
2021/01/23 20:29:35;;;;;;;11.55;7.13;;;;;;;3.76;100.00;98029.72;20863643;28;20046;-72
2021/01/23 20:39:36;;;;;;;10.15;5.63;;;;;;;3.58;100.00;98018.00;20858462;28;20536;-72
2021/01/23 20:49:37;;;;;;;8.32;4.70;;;;;;;3.58;100.00;98031.75;20852940;28;20079;-72
2021/01/23 20:59:38;;;;;;;9.88;5.65;;;;;;;3.58;100.00;98042.09;20846432;28;20045;-72
2021/01/23 21:09:40;;;;;;;8.32;4.95;;;;;;;3.57;100.00;98032.66;20861971;28;20045;-72
2021/01/23 21:19:41;;;;;;;9.18;4.55;;;;;;;3.48;100.00;98032.44;20847397;28;20098;-72
2021/01/23 21:29:42;;;;;;;9.45;5.60;;;;;;;3.52;100.00;98026.13;20831996;28;20044;-72
2021/01/23 21:39:43;;;;;;;8.95;5.47;;;;;;;3.45;100.00;98021.34;20833050;28;20082;-72
2021/01/23 21:49:44;;;;;;;10.13;5.95;;;;;;;3.15;100.00;98012.13;20846255;28;20050;-72
2021/01/23 21:59:45;;;;;;;15.07;7.60;;;;;;;2.91;100.00;98011.88;20849452;28;20044;-72
2021/01/23 22:09:46;;;;;;;12.10;7.80;;;;;;;2.84;100.00;98029.53;20838562;28;20037;-72
2021/01/23 22:19:47;;;;;;;12.13;6.82;;;;;;;2.90;100.00;98028.28;20880783;28;20044;-72
2021/01/23 22:29:48;;;;;;;11.38;5.72;;;;;;;2.94;100.00;98024.63;20844798;28;20128;-72
2021/01/23 22:39:50;;;;;;;10.02;4.55;;;;;;;3.05;100.00;98019.59;20849886;28;20540;-72
2021/01/23 22:49:51;;;;;;;10.68;5.30;;;;;;;3.15;100.00;98028.44;20834488;28;20038;-71
2021/01/23 22:59:52;;;;;;;7.45;3.55;;;;;;;3.29;100.00;98017.25;20831950;28;20072;-71
2021/01/23 23:09:53;;;;;;;8.82;3.33;;;;;;;3.30;100.00;98029.25;20846106;28;20048;-71
2021/01/23 23:19:54;;;;;;;7.47;3.67;;;;;;;3.27;100.00;98032.03;20843553;28;20093;-71
2021/01/23 23:29:55;;;;;;;5.90;3.15;;;;;;;3.30;100.00;98027.47;20823194;28;20098;-71
2021/01/23 23:39:56;;;;;;;8.60;3.30;;;;;;;3.28;100.00;98034.53;20804991;28;20136;-71
2021/01/23 23:49:57;;;;;;;7.57;3.13;;;;;;;3.35;100.00;98035.78;20835649;28;20065;-72
2021/01/23 23:59:58;;;;;;;7.57;3.45;;;;;;;3.37;100.00;98033.94;20821449;28;20046;-71
